메인 페이지
METAR-TAF:

METAR-TAF

공항 :

프라하 바츨라프 하벨 국제공항

프라하, 체코

위도: 50-06N, 경도: 014-15E, 고도: 365m

현재 날씨관측

예보는 6분 전, 04:30시(UTC)에 발표되었습니다.
북북서4kt
온도 9°C
습도 87%
기압 1014 hPa
시정 10km 이상
1500m 미만 상공 구름 및 적란운 없음

METAR: LKPR 220430Z 34004KT CAVOK 09/07 Q1014 NOSIG

시각: 06:36 (04:36 UTC)

예보

예보는 5 시간 36분 전, 23:00시(UTC)에 발표되었습니다.
예보 대상 시간: 22일 00시부터 23일 06시까지 (UTC)
8kt
시정 10km 이상
1500m 미만 상공 구름 및 적란운 없음
일시적
22일 12시부터 22일 22시까지 (UTC)
시정 10km 이상
고도 4000ft 상공 구름 보통, 타워링 적운.
약한소나기
확률 30% :
일시적
22일 15시부터 22일 21시까지 (UTC)
고도 4500ft 상공 구름 보통, 적란운.
확률 30% :
일시적
23일 00시부터 23일 03시까지 (UTC)
시정: 5000m
고도 1500ft 상공 구름 보통
박무

TAF: LKPR 212300Z 2200/2306 09008KT CAVOK TEMPO 2212/2222 9999 -SHRA SCT040TCU PROB30 TEMPO 2215/2221 SCT045CB PROB30 TEMPO 2300/2303 5000 BR SCT015

4,000개 이상의 공항 관측 자료 및 예보 (METAR 및 TAF 보고).

지도상에서 검색 가능한 기상관측소가 노란 점과 빨간 점으로 표시되어 있습니다.

기상관측소 명을 보려면 표시 위로 마우스를 이동하세요.

날씨 관측과 예보를 보려면 클릭하세요.

지도 변경 : 확대하려면 엑스 표시가 있는 녹색 버튼, 축소하려면 빼기 표시가 있는 녹색 버튼, 다음 페이지의 지도를 보려면 녹색 화살표를 클릭하세요.


METAR-TAF: